createdAt,value
2023-02-01T00:00:37.829Z,54.10
2023-02-01T00:03:06.560Z,51.63
2023-02-01T00:05:33.872Z,48.25
2023-02-01T00:08:01.196Z,49.10
2023-02-01T00:10:28.508Z,48.10
2023-02-01T00:12:55.961Z,50.70
2023-02-01T00:15:24.133Z,53.15
2023-02-01T00:17:55.708Z,46.95
2023-02-01T00:20:23.173Z,48.35
2023-02-01T00:22:50.623Z,47.75
2023-02-01T00:25:17.999Z,43.40
2023-02-01T00:27:49.933Z,46.88
2023-02-01T00:30:18.704Z,43.47
2023-02-01T00:32:47.331Z,41.80
2023-02-01T00:35:14.735Z,41.35
2023-02-01T00:37:42.035Z,45.63
2023-02-01T00:40:09.859Z,43.50
2023-02-01T00:42:37.335Z,39.58
2023-02-01T00:45:05.011Z,45.40
2023-02-01T00:47:33.352Z,41.00
2023-02-01T00:50:00.682Z,41.47
2023-02-01T00:52:29.952Z,38.92
2023-02-01T00:54:57.301Z,40.30
2023-02-01T00:57:24.654Z,33.03
2023-02-01T00:59:51.935Z,37.17
2023-02-01T01:02:19.432Z,35.53
2023-02-01T01:04:47.908Z,38.88
2023-02-01T01:07:15.596Z,36.97
2023-02-01T01:09:42.910Z,34.67
2023-02-01T01:12:12.011Z,32.03
2023-02-01T01:14:39.267Z,35.35
2023-02-01T01:17:06.635Z,31.40
2023-02-01T01:19:33.920Z,31.75
2023-02-01T01:22:01.228Z,32.00
2023-02-01T01:24:28.548Z,33.35
2023-02-01T01:26:55.921Z,35.15
2023-02-01T01:29:23.207Z,37.83
2023-02-01T01:31:50.635Z,29.55
2023-02-01T01:34:17.963Z,34.40
2023-02-01T01:36:45.297Z,31.35
2023-02-01T01:39:12.820Z,37.45
2023-02-01T01:41:40.321Z,32.85
2023-02-01T01:44:55.995Z,38.20
2023-02-01T01:47:23.635Z,41.13
2023-02-01T01:49:51.788Z,54.97
2023-02-01T01:52:20.115Z,68.80
2023-02-01T01:54:52.369Z,65.85
2023-02-01T01:57:29.823Z,67.90
2023-02-01T02:00:10.691Z,62.97
2023-02-01T02:02:48.643Z,61.78
2023-02-01T02:05:18.231Z,69.22
2023-02-01T02:07:49.877Z,70.15
2023-02-01T02:10:18.254Z,64.95
2023-02-01T02:12:49.026Z,62.95
2023-02-01T02:15:18.079Z,71.72
2023-02-01T02:17:59.158Z,70.72
2023-02-01T02:21:04.347Z,66.55
2023-02-01T02:24:01.188Z,60.47
2023-02-01T02:26:40.768Z,64.45
2023-02-01T02:29:40.791Z,63.80
2023-02-01T02:32:20.262Z,63.38
2023-02-01T02:34:57.022Z,65.47
2023-02-01T02:37:36.312Z,62.70
2023-02-01T02:40:21.977Z,67.05
2023-02-01T02:43:35.252Z,64.10
2023-02-01T02:46:46.127Z,64.75
2023-02-01T02:49:35.243Z,64.60
2023-02-01T02:52:42.192Z,64.28
2023-02-01T02:55:11.203Z,62.75
2023-02-01T02:58:02.445Z,66.18
2023-02-01T03:00:52.132Z,61.30
2023-02-01T03:03:38.360Z,61.40
2023-02-01T03:06:15.850Z,67.57
2023-02-01T03:08:46.333Z,65.07
2023-02-01T03:11:15.985Z,63.70
2023-02-01T03:13:54.055Z,61.17
2023-02-01T03:16:34.449Z,63.15
2023-02-01T03:19:09.327Z,64.43
2023-02-01T03:21:40.708Z,60.03
2023-02-01T03:24:34.477Z,64.32
2023-02-01T03:27:24.245Z,63.88
2023-02-01T03:30:02.206Z,62.63
2023-02-01T03:32:30.395Z,59.72
2023-02-01T03:34:57.787Z,59.35
2023-02-01T03:37:28.879Z,57.67
2023-02-01T03:40:02.198Z,60.45
2023-02-01T03:42:38.173Z,60.88
2023-02-01T03:45:12.145Z,58.95
2023-02-01T03:47:44.378Z,50.63
2023-02-01T03:50:18.436Z,58.17
2023-02-01T03:53:02.660Z,56.22
2023-02-01T03:55:32.909Z,55.67
2023-02-01T03:58:08.891Z,57.33
2023-02-01T04:00:37.173Z,54.40
2023-02-01T04:03:05.940Z,54.50
2023-02-01T04:05:34.025Z,55.88
2023-02-01T04:08:06.987Z,59.22
2023-02-01T04:10:34.489Z,54.83
2023-02-01T04:13:01.818Z,53.33
2023-02-01T04:15:29.153Z,56.85
2023-02-01T04:17:56.504Z,53.70
2023-02-01T04:20:24.669Z,61.58
2023-02-01T04:22:52.128Z,52.22
2023-02-01T04:25:19.530Z,54.55
2023-02-01T04:27:47.918Z,55.90
2023-02-01T04:30:15.912Z,61.08
2023-02-01T04:32:43.453Z,57.88
2023-02-01T04:35:10.980Z,54.67
2023-02-01T04:37:38.248Z,54.53
2023-02-01T04:40:06.252Z,59.00
2023-02-01T04:42:33.544Z,55.67
2023-02-01T04:45:00.877Z,53.45
2023-02-01T04:47:28.284Z,59.05
2023-02-01T04:49:56.092Z,54.08
2023-02-01T04:52:23.554Z,58.00
2023-02-01T04:54:51.081Z,60.45
2023-02-01T04:57:18.522Z,61.60
2023-02-01T04:59:46.092Z,59.13
2023-02-01T05:02:13.837Z,63.97
2023-02-01T05:04:41.239Z,59.95
2023-02-01T05:07:08.827Z,61.03
2023-02-01T05:09:36.700Z,65.88
2023-02-01T05:12:23.288Z,66.07
2023-02-01T05:14:50.787Z,64.30
2023-02-01T05:17:18.365Z,60.20
2023-02-01T05:19:45.725Z,63.33
2023-02-01T05:22:13.046Z,65.95
2023-02-01T05:24:40.590Z,62.50
2023-02-01T05:27:08.100Z,63.60
2023-02-01T05:29:35.493Z,69.25
2023-02-01T05:32:19.347Z,66.85
2023-02-01T05:34:48.865Z,63.45
2023-02-01T05:37:16.288Z,64.68
2023-02-01T05:39:43.840Z,69.10
2023-02-01T05:42:11.638Z,67.03
2023-02-01T05:44:39.053Z,62.88
2023-02-01T05:47:06.623Z,62.58
2023-02-01T05:49:34.044Z,57.42
2023-02-01T05:52:01.410Z,61.85
2023-02-01T05:54:29.150Z,64.85
2023-02-01T05:56:56.516Z,66.88
2023-02-01T05:59:24.290Z,70.40
2023-02-01T06:01:52.036Z,70.53
2023-02-01T06:04:19.612Z,68.55
2023-02-01T06:06:46.997Z,70.00
2023-02-01T06:09:14.340Z,66.30
2023-02-01T06:11:42.417Z,62.47
2023-02-01T06:14:09.811Z,66.65
2023-02-01T06:16:37.312Z,63.45
2023-02-01T06:19:04.734Z,63.08
2023-02-01T06:21:32.194Z,57.22
2023-02-01T06:24:00.049Z,64.65
2023-02-01T06:26:29.598Z,59.92
2023-02-01T06:28:57.564Z,64.38
2023-02-01T06:31:26.348Z,64.28
2023-02-01T06:33:54.620Z,68.80
2023-02-01T06:36:22.344Z,70.75
2023-02-01T06:38:50.139Z,60.40
2023-02-01T06:41:17.989Z,61.78
2023-02-01T06:43:47.309Z,62.72
2023-02-01T06:46:14.965Z,63.00
2023-02-01T06:48:42.810Z,61.00
2023-02-01T06:51:39.764Z,67.93
2023-02-01T06:54:07.220Z,63.03
2023-02-01T06:56:34.697Z,63.17
2023-02-01T06:59:05.504Z,64.63
2023-02-01T07:01:33.531Z,62.42
2023-02-01T07:04:01.023Z,60.88
2023-02-01T07:06:28.518Z,64.82
2023-02-01T07:08:56.924Z,58.75
2023-02-01T07:11:24.776Z,59.55
2023-02-01T07:13:53.393Z,59.53
2023-02-01T07:16:21.856Z,62.00
2023-02-01T07:18:51.828Z,59.47
2023-02-01T07:21:20.239Z,59.85
2023-02-01T07:23:47.665Z,54.67
2023-02-01T07:26:17.453Z,64.25
2023-02-01T07:28:45.062Z,62.75
2023-02-01T07:31:16.606Z,67.20
2023-02-01T07:33:44.255Z,58.55
2023-02-01T07:36:13.836Z,60.17
2023-02-01T07:38:41.772Z,60.70
2023-02-01T07:41:09.936Z,53.45
2023-02-01T07:43:37.643Z,68.97
2023-02-01T07:46:06.406Z,60.92
2023-02-01T07:48:37.397Z,61.38
2023-02-01T07:51:13.256Z,56.78
2023-02-01T07:53:41.710Z,60.50
2023-02-01T07:56:19.867Z,62.95
2023-02-01T07:58:52.503Z,66.35
2023-02-01T08:01:25.389Z,66.93
2023-02-01T08:04:00.051Z,63.35
2023-02-01T08:06:29.637Z,59.67
2023-02-01T08:08:57.079Z,60.03
2023-02-01T08:11:25.999Z,61.25
2023-02-01T08:13:54.213Z,56.30
2023-02-01T08:16:22.594Z,61.80
2023-02-01T08:18:50.483Z,61.15
2023-02-01T08:21:24.152Z,63.17
2023-02-01T08:23:52.721Z,63.70
2023-02-01T08:26:23.173Z,61.00
2023-02-01T08:28:54.360Z,62.35
2023-02-01T08:31:24.111Z,65.13
2023-02-01T08:33:54.779Z,60.65
2023-02-01T08:36:23.979Z,64.82
2023-02-01T08:38:51.898Z,65.90
2023-02-01T08:41:22.876Z,63.78
2023-02-01T08:43:50.583Z,67.15
2023-02-01T08:46:18.662Z,68.18
2023-02-01T08:48:48.126Z,66.38
2023-02-01T08:51:18.790Z,65.03
2023-02-01T08:53:46.535Z,73.47
2023-02-01T08:56:16.749Z,63.42
2023-02-01T08:58:45.399Z,70.38
2023-02-01T09:01:15.188Z,63.90
2023-02-01T09:03:42.860Z,66.00
2023-02-01T09:06:12.656Z,72.10
2023-02-01T09:08:41.255Z,66.57
2023-02-01T09:11:12.463Z,76.50
2023-02-01T09:13:39.917Z,75.70
2023-02-01T09:16:07.865Z,71.05
2023-02-01T09:18:35.817Z,72.22
2023-02-01T09:21:09.533Z,76.35
2023-02-01T09:23:37.598Z,69.50
2023-02-01T09:26:06.196Z,78.00
2023-02-01T09:28:34.005Z,71.65
2023-02-01T09:31:02.697Z,75.30
2023-02-01T09:33:30.754Z,77.43
2023-02-01T09:36:00.000Z,74.07
2023-02-01T09:38:28.471Z,70.72
2023-02-01T09:40:57.103Z,82.63
2023-02-01T09:43:48.376Z,76.22
2023-02-01T09:46:22.237Z,76.72
2023-02-01T09:48:53.320Z,77.07
2023-02-01T09:51:26.544Z,80.47
2023-02-01T09:54:05.381Z,72.20
2023-02-01T09:56:43.330Z,70.43
2023-02-01T09:59:33.524Z,71.70
2023-02-01T10:02:05.463Z,73.88
2023-02-01T10:07:12.781Z,82.63
2023-02-01T10:10:00.669Z,81.53
2023-02-01T10:12:43.411Z,86.80
2023-02-01T10:15:25.728Z,83.38
2023-02-01T10:18:28.452Z,86.40
2023-02-01T10:21:18.536Z,83.80
2023-02-01T10:24:23.355Z,85.32
2023-02-01T10:27:12.698Z,88.20
2023-02-01T10:29:47.046Z,87.68
2023-02-01T10:32:18.144Z,86.07
2023-02-01T10:34:50.822Z,83.38
2023-02-01T10:37:26.064Z,98.45
2023-02-01T10:39:59.026Z,97.68
2023-02-01T10:42:48.151Z,98.25
2023-02-01T10:45:20.198Z,99.20
2023-02-01T10:50:37.300Z,101.75
2023-02-01T10:53:07.848Z,100.95
2023-02-01T10:55:47.092Z,98.97
2023-02-01T10:58:30.376Z,96.65
2023-02-01T11:01:03.916Z,92.85
2023-02-01T11:03:33.712Z,93.35
2023-02-01T11:06:03.776Z,95.65
2023-02-01T11:08:31.575Z,96.68
2023-02-01T11:11:02.470Z,98.90
2023-02-01T11:13:32.932Z,100.38
2023-02-01T11:16:03.900Z,100.60
2023-02-01T11:18:38.676Z,91.55
2023-02-01T11:21:07.838Z,91.25
2023-02-01T11:23:42.165Z,97.95
2023-02-01T11:26:24.314Z,94.10
2023-02-01T11:31:28.683Z,89.88
2023-02-01T11:34:05.191Z,87.25
2023-02-01T11:36:34.873Z,90.82
2023-02-01T11:39:19.762Z,90.88
2023-02-01T11:42:07.310Z,97.18
2023-02-01T11:44:38.186Z,90.75
2023-02-01T11:47:29.258Z,90.03
2023-02-01T11:50:10.483Z,94.18
2023-02-01T11:53:21.396Z,95.10
2023-02-01T11:56:10.127Z,95.28
2023-02-01T11:59:07.702Z,92.65
2023-02-01T12:01:35.505Z,89.85
2023-02-01T12:04:25.704Z,96.72
2023-02-01T12:06:57.860Z,94.55
2023-02-01T12:12:15.381Z,92.85
2023-02-01T12:15:10.184Z,88.22
2023-02-01T12:17:55.092Z,84.93
2023-02-01T12:20:35.836Z,84.80
2023-02-01T12:23:31.314Z,84.95
2023-02-01T12:26:26.401Z,88.57
2023-02-01T12:29:17.765Z,88.57
2023-02-01T12:31:57.977Z,90.45
2023-02-01T12:34:45.542Z,88.20
2023-02-01T12:37:39.574Z,90.93
2023-02-01T12:40:23.563Z,87.13
2023-02-01T12:43:07.069Z,86.35
2023-02-01T12:45:49.221Z,89.32
2023-02-01T12:50:55.681Z,92.82
2023-02-01T12:53:35.005Z,95.45
2023-02-01T12:56:11.173Z,94.70
2023-02-01T12:58:47.294Z,88.47
2023-02-01T13:01:36.242Z,94.45
2023-02-01T13:04:20.924Z,90.28
2023-02-01T13:07:12.720Z,89.40
2023-02-01T13:09:51.709Z,93.30
2023-02-01T13:12:57.671Z,97.95
2023-02-01T13:16:02.454Z,92.35
2023-02-01T13:18:38.364Z,94.38
2023-02-01T13:21:16.125Z,83.75
2023-02-01T13:23:47.735Z,93.45
2023-02-01T13:26:15.352Z,93.68
2023-02-01T13:28:48.307Z,94.72
2023-02-01T13:31:28.650Z,88.43
2023-02-01T13:34:46.128Z,95.68
2023-02-01T13:38:06.232Z,90.75
2023-02-01T13:40:48.901Z,92.93
2023-02-01T13:43:29.821Z,93.28
2023-02-01T13:46:03.597Z,91.93
2023-02-01T13:48:40.319Z,92.30
2023-02-01T13:51:08.832Z,93.15
2023-02-01T13:53:38.970Z,93.35
2023-02-01T13:56:25.269Z,92.25
2023-02-01T13:58:53.032Z,91.45
2023-02-01T14:01:23.481Z,92.03
2023-02-01T14:04:32.313Z,89.50
2023-02-01T14:06:59.904Z,89.88
2023-02-01T14:09:39.743Z,89.72
2023-02-01T14:12:45.471Z,88.93
2023-02-01T14:16:02.457Z,87.45
2023-02-01T14:18:35.823Z,87.65
2023-02-01T14:21:34.355Z,96.13
2023-02-01T14:24:23.547Z,93.38
2023-02-01T14:26:53.969Z,87.78
2023-02-01T14:29:36.374Z,89.43
2023-02-01T14:32:21.892Z,91.60
2023-02-01T14:34:49.304Z,89.32
2023-02-01T14:37:19.644Z,95.47
2023-02-01T14:39:46.975Z,87.65
2023-02-01T14:42:26.582Z,87.15
2023-02-01T14:44:58.657Z,94.47
2023-02-01T14:47:32.133Z,86.45
2023-02-01T14:50:26.116Z,86.50
2023-02-01T14:53:04.853Z,93.05
2023-02-01T14:55:44.823Z,83.88
2023-02-01T14:58:46.649Z,87.13
2023-02-01T15:01:23.839Z,90.93
2023-02-01T15:03:57.531Z,86.47
2023-02-01T15:06:29.072Z,88.63
2023-02-01T15:09:01.084Z,91.93
2023-02-01T15:11:28.865Z,90.60
2023-02-01T15:13:57.582Z,87.50
2023-02-01T15:16:27.133Z,88.75
2023-02-01T15:19:12.318Z,88.10
2023-02-01T15:21:46.847Z,92.57
2023-02-01T15:24:27.735Z,89.93
2023-02-01T15:26:56.786Z,89.65
2023-02-01T15:29:30.450Z,92.60
2023-02-01T15:31:57.963Z,91.15
2023-02-01T15:34:46.785Z,86.85
2023-02-01T15:37:21.034Z,91.95
2023-02-01T15:40:13.278Z,86.05
2023-02-01T15:42:56.107Z,87.70
2023-02-01T15:45:31.186Z,87.88
2023-02-01T15:47:59.952Z,89.70
2023-02-01T15:50:31.311Z,86.35
2023-02-01T15:52:59.027Z,84.45
2023-02-01T15:55:42.967Z,89.03
2023-02-01T15:58:19.833Z,90.45
2023-02-01T16:00:52.558Z,90.40
2023-02-01T16:03:39.901Z,90.00
2023-02-01T16:06:13.600Z,86.03
2023-02-01T16:08:52.564Z,88.07
2023-02-01T16:11:23.683Z,95.70
2023-02-01T16:13:51.204Z,86.23
2023-02-01T16:16:18.917Z,90.78
2023-02-01T16:18:46.635Z,95.18
2023-02-01T16:21:14.113Z,95.35
2023-02-01T16:23:41.619Z,95.38
2023-02-01T16:26:15.711Z,90.20
2023-02-01T16:28:43.557Z,87.25
2023-02-01T16:31:20.410Z,93.90
2023-02-01T16:33:51.004Z,91.15
2023-02-01T16:36:19.425Z,91.47
2023-02-01T16:38:49.021Z,91.78
2023-02-01T16:41:18.898Z,98.32
2023-02-01T16:43:46.820Z,91.90
2023-02-01T16:46:21.564Z,91.38
2023-02-01T16:49:17.795Z,94.45
2023-02-01T16:51:45.490Z,94.40
2023-02-01T16:54:13.354Z,95.05
2023-02-01T16:56:43.330Z,90.68
2023-02-01T16:59:11.121Z,95.85
2023-02-01T17:01:42.933Z,99.65
2023-02-01T17:04:11.341Z,99.85
2023-02-01T17:06:39.759Z,91.82
2023-02-01T17:09:07.530Z,97.55
2023-02-01T17:11:35.000Z,101.25
2023-02-01T17:14:22.596Z,108.25
2023-02-01T17:16:51.320Z,95.60
2023-02-01T17:19:24.563Z,103.10
2023-02-01T17:21:56.946Z,98.25
2023-02-01T17:24:28.686Z,105.78
2023-02-01T17:27:04.796Z,96.97
2023-02-01T17:29:32.259Z,103.55
2023-02-01T17:32:01.549Z,97.75
2023-02-01T17:34:29.416Z,102.75
2023-02-01T17:36:57.251Z,109.05
2023-02-01T17:39:51.081Z,101.03
2023-02-01T17:42:18.617Z,101.57
2023-02-01T17:44:46.599Z,103.78
2023-02-01T17:47:13.963Z,110.97
2023-02-01T17:49:41.388Z,104.07
2023-02-01T17:52:17.076Z,103.43
2023-02-01T17:54:46.383Z,100.70
2023-02-01T17:57:14.077Z,99.97
2023-02-01T17:59:41.531Z,98.00
2023-02-01T18:02:35.534Z,95.65
2023-02-01T18:05:03.019Z,102.22
2023-02-01T18:07:30.478Z,107.45
2023-02-01T18:09:58.002Z,99.03
2023-02-01T18:12:26.527Z,104.03
2023-02-01T18:14:54.180Z,98.60
2023-02-01T18:17:21.649Z,95.80
2023-02-01T18:19:49.264Z,103.72
2023-02-01T18:22:19.970Z,107.68
2023-02-01T18:24:47.616Z,111.63
2023-02-01T18:27:15.143Z,108.00
2023-02-01T18:29:42.551Z,112.05
2023-02-01T18:32:11.037Z,113.05
2023-02-01T18:34:38.490Z,114.03
2023-02-01T18:37:05.927Z,111.22
2023-02-01T18:39:33.655Z,107.00
2023-02-01T18:42:01.042Z,106.07
2023-02-01T18:44:28.409Z,112.07
2023-02-01T18:46:55.778Z,119.93
2023-02-01T18:49:23.343Z,116.57
2023-02-01T18:51:52.209Z,110.15
2023-02-01T18:54:19.970Z,114.55
2023-02-01T18:56:47.653Z,112.40
2023-02-01T18:59:17.457Z,115.75
2023-02-01T19:01:45.192Z,132.80
2023-02-01T19:04:19.802Z,120.20
2023-02-01T19:06:53.583Z,116.78
2023-02-01T19:09:21.194Z,118.60
2023-02-01T19:11:48.648Z,115.20
2023-02-01T19:14:16.058Z,120.28
2023-02-01T19:16:44.499Z,119.85
2023-02-01T19:19:12.055Z,111.80
2023-02-01T19:21:39.481Z,114.47
2023-02-01T19:24:07.389Z,114.05
2023-02-01T19:26:35.035Z,111.47
2023-02-01T19:29:02.724Z,104.18
2023-02-01T19:31:30.478Z,105.80
2023-02-01T19:33:58.011Z,109.97
2023-02-01T19:36:26.862Z,108.60
2023-02-01T19:38:54.449Z,103.40
2023-02-01T19:41:21.891Z,104.45
2023-02-01T19:43:49.537Z,109.60
2023-02-01T19:46:17.051Z,117.03
2023-02-01T19:48:44.487Z,117.72
2023-02-01T19:51:12.827Z,121.13
2023-02-01T19:53:40.313Z,111.55
2023-02-01T19:56:08.089Z,110.93
2023-02-01T19:58:35.570Z,113.38
2023-02-01T20:01:02.829Z,115.55
2023-02-01T20:03:30.264Z,112.82
2023-02-01T20:05:58.966Z,114.97
2023-02-01T20:08:26.809Z,113.55
2023-02-01T20:10:54.348Z,116.43
2023-02-01T20:13:21.768Z,116.47
2023-02-01T20:15:55.487Z,117.53
2023-02-01T20:18:22.998Z,121.63
2023-02-01T20:20:54.309Z,121.25
2023-02-01T20:23:21.772Z,114.03
2023-02-01T20:25:50.212Z,128.82
2023-02-01T20:28:17.753Z,115.90
2023-02-01T20:30:46.133Z,121.57
2023-02-01T20:33:13.698Z,112.32
2023-02-01T20:35:45.291Z,114.85
2023-02-01T20:38:12.781Z,115.68
2023-02-01T20:40:40.447Z,116.38
2023-02-01T20:43:09.017Z,115.70
2023-02-01T20:45:43.511Z,112.35
2023-02-01T20:48:12.055Z,111.68
2023-02-01T20:50:39.763Z,115.00
2023-02-01T20:53:07.220Z,116.30
2023-02-01T20:55:34.683Z,114.63
2023-02-01T20:58:02.038Z,105.07
2023-02-01T21:00:31.165Z,108.20
2023-02-01T21:02:58.657Z,96.88
2023-02-01T21:05:39.844Z,110.80
2023-02-01T21:08:09.127Z,101.25
2023-02-01T21:10:36.747Z,107.05
2023-02-01T21:13:05.533Z,105.13
2023-02-01T21:15:36.238Z,96.32
2023-02-01T21:18:05.895Z,102.32
2023-02-01T21:20:33.228Z,102.40
2023-02-01T21:23:00.537Z,108.70
2023-02-01T21:25:28.043Z,98.68
2023-02-01T21:27:55.353Z,100.72
2023-02-01T21:30:22.761Z,100.35
2023-02-01T21:32:50.268Z,102.65
2023-02-01T21:35:17.681Z,102.32
2023-02-01T21:37:44.966Z,104.47
2023-02-01T21:40:12.861Z,107.72
2023-02-01T21:42:42.725Z,108.72
2023-02-01T21:45:10.470Z,108.45
2023-02-01T21:47:38.636Z,106.80
2023-02-01T21:50:18.047Z,111.93
2023-02-01T21:52:46.364Z,113.72
2023-02-01T21:55:14.282Z,111.90
2023-02-01T21:57:42.441Z,111.97
2023-02-01T22:00:10.316Z,107.28
2023-02-01T22:02:37.718Z,110.35
2023-02-01T22:05:06.649Z,110.00
2023-02-01T22:07:36.030Z,105.47
2023-02-01T22:10:04.252Z,102.85
2023-02-01T22:12:31.578Z,104.10
2023-02-01T22:14:58.892Z,102.88
2023-02-01T22:17:27.349Z,101.03
2023-02-01T22:19:54.631Z,99.20
2023-02-01T22:22:21.983Z,100.50
2023-02-01T22:24:49.309Z,102.65
2023-02-01T22:27:16.808Z,103.88
2023-02-01T22:29:44.113Z,100.50
2023-02-01T22:32:13.288Z,101.18
2023-02-01T22:34:41.510Z,105.57
2023-02-01T22:37:10.571Z,103.28
2023-02-01T22:39:38.397Z,115.45
2023-02-01T22:42:06.807Z,104.93
2023-02-01T22:44:34.076Z,105.90
2023-02-01T22:47:01.427Z,103.13
2023-02-01T22:49:28.933Z,104.22
2023-02-01T22:51:56.602Z,107.90
2023-02-01T22:54:23.919Z,102.20
2023-02-01T22:56:51.376Z,98.57
2023-02-01T22:59:18.715Z,102.53
2023-02-01T23:01:46.106Z,102.13
2023-02-01T23:04:15.019Z,101.15
2023-02-01T23:06:42.713Z,103.50
2023-02-01T23:09:21.910Z,101.30
2023-02-01T23:11:49.738Z,105.07
2023-02-01T23:14:17.758Z,99.95
2023-02-01T23:16:46.214Z,92.65
2023-02-01T23:19:14.140Z,103.82
2023-02-01T23:21:41.932Z,96.68
2023-02-01T23:24:10.794Z,96.03
2023-02-01T23:26:38.572Z,100.85
2023-02-01T23:29:06.174Z,101.38
2023-02-01T23:31:35.121Z,109.22
2023-02-01T23:34:03.552Z,101.97
2023-02-01T23:36:32.962Z,102.13
2023-02-01T23:39:01.018Z,99.07
2023-02-01T23:41:30.062Z,104.38
2023-02-01T23:43:57.633Z,102.25
2023-02-01T23:46:30.112Z,101.00
2023-02-01T23:48:57.936Z,99.07
2023-02-01T23:51:26.154Z,102.35
2023-02-01T23:53:54.419Z,100.10
2023-02-01T23:56:33.635Z,99.32
2023-02-01T23:59:06.528Z,97.07
